Flight Track Log - Related Links

Times and Time Zones

All times are in EDT time to prevent confusion due to time zone crossing. See the SKW4664 flight status page for this flight to view local times or setup timezone preferences in your user account.

Time Position Orientation Groundspeed Altitude Reporting Facility
EDT Latitude Longitude Course Direction KTS MPH feet Rate Location/Type
Wed 10:52:14 AM 44.8919 -93.2786 235° Southwest 170 196 3,000  Level FAA TRACON SMA TRACON (SMA)
Wed 10:52:34 AM 44.8897 -93.3006 262° West 182 209 3,900 2,550 Climbing FAA TRACON SMA TRACON (SMA)
Wed 10:52:54 AM 44.8872 -93.3322 264° West 207 238 4,700 2,550 Climbing FAA TRACON SMA TRACON (SMA)
Wed 10:53:14 AM 44.8850 -93.3608 264° West 231 266 5,600 3,450 Climbing FAA TRACON SMA TRACON (SMA)
Wed 10:53:34 AM 44.8800 -93.3969 259° West 246 283 7,000 3,750 Climbing FAA TRACON SMA TRACON (SMA)
Wed 10:53:54 AM 44.8689 -93.4231 239° Southwest 253 291 8,100 3,073 Climbing FAA TRACON SMA TRACON (SMA)
Wed 10:54:00 AM 44.7002 -93.5997 232° Southwest  Level FlightAware Approximate
Wed 10:54:15 AM 44.8536 -93.4467 228° Southwest 260 299 9,100  Level FAA TRACON SMA TRACON (SMA)
Wed 10:54:35 AM 44.8342 -93.4756 227° Southwest 267 307 10,200 2,550 Climbing FAA TRACON SMA TRACON (SMA)
Wed 10:54:55 AM 44.8172 -93.5003 226° Southwest 278 320 10,800 2,462 Climbing FAA TRACON SMA TRACON (SMA)
Wed 10:55:00 AM 44.6352 -93.7297 235° Southwest  Level FlightAware Approximate
Wed 10:55:14 AM 44.8003 -93.5253 226° Southwest 287 330 11,800  Level FAA TRACON SMA TRACON (SMA)
Wed 10:55:34 AM 44.7789 -93.5575 227° Southwest 292 336 12,700 2,250 Climbing FAA TRACON SMA TRACON (SMA)
Wed 10:55:54 AM 44.7608 -93.5844 227° Southwest 303 349 13,300 1,950 Climbing FAA TRACON SMA TRACON (SMA)
Wed 10:56:00 AM 44.5652 -93.8525 230° Southwest  Level FlightAware Approximate
Wed 10:56:14 AM 44.7425 -93.6119 227° Southwest 311 358 14,000  Level FAA TRACON SMA TRACON (SMA)
Wed 10:56:34 AM 44.7194 -93.6469 227° Southwest 317 365 15,000 3,000 Climbing FAA TRACON SMA TRACON (SMA)
Wed 10:56:54 AM 44.7008 -93.6739 226° Southwest 316 364 16,000 2,488 Climbing FAA TRACON SMA TRACON (SMA)
Wed 10:57:00 AM 44.4951 -93.9766 235° Southwest  Level FlightAware Approximate
Wed 10:57:15 AM 44.6819 -93.7011 226° Southwest 317 365 16,700  Level FAA TRACON SMA TRACON (SMA)
Wed 10:57:35 AM 44.6581 -93.7361 226° Southwest 322 371 17,500 2,250 Climbing FAA TRACON SMA TRACON (SMA)
Wed 10:57:55 AM 44.6392 -93.7644 227° Southwest 323 372 18,200 2,154 Climbing FAA TRACON SMA TRACON (SMA)
Wed 10:58:14 AM 44.6197 -93.7922 225° Southwest 325 374 18,900 2,154 Climbing FAA TRACON SMA TRACON (SMA)
Wed 10:58:34 AM 44.6006 -93.8200 226° Southwest 324 373 19,600 2,100 Climbing FAA TRACON SMA TRACON (SMA)
Wed 10:58:54 AM 44.5778 -93.8575 230° Southwest 326 375 20,300 1,800 Climbing FAA TRACON SMA TRACON (SMA)
Wed 10:59:14 AM 44.5619 -93.8894 235° Southwest 326 375 20,800 1,500 Climbing FAA TRACON SMA TRACON (SMA)
Wed 10:59:34 AM 44.5406 -93.9297 233° Southwest 332 382 21,300 1,650 Climbing FAA TRACON SMA TRACON (SMA)
Wed 10:59:54 AM 44.5239 -93.9628 235° Southwest 336 387 21,900 1,500 Climbing FAA TRACON SMA TRACON (SMA)
Wed 11:00:14 AM 44.5064 -93.9953 233° Southwest 339 390 22,300 1,463 Climbing FAA TRACON SMA TRACON (SMA)
Wed 11:00:35 AM 44.4856 -94.0369 235° Southwest 342 394 22,900 689 Climbing FAA TRACON SMA TRACON (SMA)
Wed 11:01:15 AM 44.4494 -94.1058 234° Southwest 358 412 23,000 100 Climbing FAA TRACON SMA TRACON (SMA)
Wed 11:01:35 AM 44.4261 -94.1514 234° Southwest 373 429 23,000  Level FAA TRACON SMA TRACON (SMA)
Wed 11:01:55 AM 44.4072 -94.1889 235° Southwest 382 440 23,000  Level FAA TRACON SMA TRACON (SMA)
Wed 11:02:15 AM 44.3883 -94.2267 235° Southwest 386 444 23,000  Level FAA TRACON SMA TRACON (SMA)
Wed 11:02:34 AM 44.3681 -94.2633 232° Southwest 387 445 23,000  Level FAA TRACON SMA TRACON (SMA)
Wed 11:02:53 AM 44.3439 -94.3103 234° Southwest 388 447 23,000  Level FAA TRACON SMA TRACON (SMA)
Wed 11:03:14 AM 44.3236 -94.3469 232° Southwest 389 448 23,000  Level FAA TRACON SMA TRACON (SMA)
Wed 11:03:35 AM 44.3150 -94.3669 239° Southwest 389 448 23,000  Level FAA TRACON SMA TRACON (SMA)
Wed 11:04:17 AM 44.2575 -94.4628 230° Southwest 388 447 23,000  Level Minneapolis Center
Wed 11:05:19 AM 44.1933 -94.5833 233° Southwest 389 448 23,000  Level Minneapolis Center
Wed 11:06:21 AM 44.1361 -94.7281 241° Southwest 379 436 23,000  Level Minneapolis Center
Wed 11:07:23 AM 44.0994 -94.8653 250° West 377 434 23,000  Level Minneapolis Center
Wed 11:08:25 AM 44.0647 -95.0003 250° West 373 429 23,000  Level Minneapolis Center
Wed 11:09:27 AM 44.0272 -95.1350 249° West 372 428 23,000  Level Minneapolis Center
Wed 11:10:29 AM 43.9914 -95.2686 250° West 371 427 23,000  Level Minneapolis Center
Wed 11:11:31 AM 43.9556 -95.4011 249° West 368 423 23,000 -581 Level Minneapolis Center
Wed 11:12:33 AM 43.9128 -95.5592 249° West 364 419 21,800 -2,177 Descending Minneapolis Center
Wed 11:13:35 AM 43.8781 -95.6861 249° West 355 409 18,500 -2,779 Descending Minneapolis Center
Wed 11:14:49 AM 43.8464 -95.8056 250° West 335 386 15,500 -3,044 Descending Minneapolis Center
Wed 11:15:51 AM 43.8097 -95.9464 250° West 325 374 11,600 -2,661 Descending Minneapolis Center
Wed 11:16:53 AM 43.7883 -96.0569 255° West 312 359 10,000 -1,500 Descending Minneapolis Center
Wed 11:17:55 AM 43.7683 -96.1475 253° West 276 318 8,500 -1,317 Descending Minneapolis Center
Wed 11:18:56 AM 43.7539 -96.2228 255° West 261 300 7,300 -1,452 Descending Minneapolis Center
Wed 11:19:59 AM 43.7303 -96.3347 254° West 254 292 5,500 -1,742 Descending Minneapolis Center
Wed 11:21:00 AM 43.7075 -96.4461 254° West 252 290 3,700 -1,220 Descending Minneapolis Center
Wed 11:22:02 AM 43.6897 -96.5308 254° West 244 281 3,000 -677 Descending Minneapolis Center

Login

Don't have an account? Register now (free) for customized features, flight alerts, and more!